sensor_id;sensor_type;location;lat;lon;timestamp;P1;durP1;ratioP1;P2;durP2;ratioP2
485;SDS011;229;48.734;9.340;2022-09-23T00:00:29;6.10;;;4.30;;
485;SDS011;229;48.734;9.340;2022-09-23T00:02:56;5.50;;;4.80;;
485;SDS011;229;48.734;9.340;2022-09-23T00:05:23;4.50;;;4.20;;
485;SDS011;229;48.734;9.340;2022-09-23T00:07:51;5.15;;;4.85;;
485;SDS011;229;48.734;9.340;2022-09-23T00:10:19;5.55;;;4.30;;
485;SDS011;229;48.734;9.340;2022-09-23T00:12:47;5.18;;;4.70;;
485;SDS011;229;48.734;9.340;2022-09-23T00:15:15;4.70;;;4.40;;
485;SDS011;229;48.734;9.340;2022-09-23T00:17:42;5.22;;;4.72;;
485;SDS011;229;48.734;9.340;2022-09-23T00:20:09;4.90;;;4.07;;
485;SDS011;229;48.734;9.340;2022-09-23T00:22:37;4.35;;;4.10;;
485;SDS011;229;48.734;9.340;2022-09-23T00:25:04;4.78;;;4.30;;
485;SDS011;229;48.734;9.340;2022-09-23T00:27:33;5.15;;;4.85;;
485;SDS011;229;48.734;9.340;2022-09-23T00:30:02;5.85;;;4.88;;
485;SDS011;229;48.734;9.340;2022-09-23T00:32:30;6.38;;;4.75;;
485;SDS011;229;48.734;9.340;2022-09-23T00:34:57;5.43;;;5.03;;
485;SDS011;229;48.734;9.340;2022-09-23T00:37:24;5.10;;;4.85;;
485;SDS011;229;48.734;9.340;2022-09-23T00:39:51;5.53;;;4.72;;
485;SDS011;229;48.734;9.340;2022-09-23T00:42:20;5.22;;;4.38;;
485;SDS011;229;48.734;9.340;2022-09-23T00:44:48;8.73;;;4.65;;
485;SDS011;229;48.734;9.340;2022-09-23T00:47:21;5.38;;;4.78;;
485;SDS011;229;48.734;9.340;2022-09-23T00:49:52;6.10;;;4.80;;
485;SDS011;229;48.734;9.340;2022-09-23T00:52:21;5.90;;;5.13;;
485;SDS011;229;48.734;9.340;2022-09-23T00:54:50;6.15;;;5.18;;
485;SDS011;229;48.734;9.340;2022-09-23T00:57:19;4.95;;;4.70;;
485;SDS011;229;48.734;9.340;2022-09-23T00:59:46;5.43;;;5.07;;
485;SDS011;229;48.734;9.340;2022-09-23T01:02:14;6.28;;;5.63;;
485;SDS011;229;48.734;9.340;2022-09-23T01:04:43;6.18;;;5.53;;
485;SDS011;229;48.734;9.340;2022-09-23T01:07:10;5.30;;;5.05;;
485;SDS011;229;48.734;9.340;2022-09-23T01:09:37;7.40;;;5.45;;
485;SDS011;229;48.734;9.340;2022-09-23T01:12:07;5.93;;;5.63;;
485;SDS011;229;48.734;9.340;2022-09-23T01:14:41;6.75;;;5.57;;
485;SDS011;229;48.734;9.340;2022-09-23T01:17:13;9.55;;;5.53;;
485;SDS011;229;48.734;9.340;2022-09-23T01:20:04;6.57;;;5.82;;
485;SDS011;229;48.734;9.340;2022-09-23T01:22:35;9.02;;;5.80;;
485;SDS011;229;48.734;9.340;2022-09-23T01:25:09;6.13;;;5.30;;
485;SDS011;229;48.734;9.340;2022-09-23T01:27:50;6.32;;;5.55;;
485;SDS011;229;48.734;9.340;2022-09-23T01:33:13;8.02;;;5.65;;
485;SDS011;229;48.734;9.340;2022-09-23T01:35:47;7.80;;;6.50;;
485;SDS011;229;48.734;9.340;2022-09-23T01:38:21;7.65;;;6.03;;
485;SDS011;229;48.734;9.340;2022-09-23T01:40:55;6.30;;;5.85;;
485;SDS011;229;48.734;9.340;2022-09-23T01:43:26;7.72;;;6.28;;
485;SDS011;229;48.734;9.340;2022-09-23T01:45:58;8.05;;;6.53;;
485;SDS011;229;48.734;9.340;2022-09-23T01:48:28;8.43;;;6.90;;
485;SDS011;229;48.734;9.340;2022-09-23T01:51:00;8.10;;;6.32;;
485;SDS011;229;48.734;9.340;2022-09-23T01:53:30;7.15;;;6.65;;
485;SDS011;229;48.734;9.340;2022-09-23T01:56:01;7.75;;;6.18;;
485;SDS011;229;48.734;9.340;2022-09-23T01:58:30;7.43;;;6.25;;
485;SDS011;229;48.734;9.340;2022-09-23T02:01:00;8.80;;;7.45;;
485;SDS011;229;48.734;9.340;2022-09-23T02:03:30;10.98;;;7.90;;
485;SDS011;229;48.734;9.340;2022-09-23T02:06:00;6.70;;;6.32;;
485;SDS011;229;48.734;9.340;2022-09-23T02:08:29;9.25;;;7.00;;
485;SDS011;229;48.734;9.340;2022-09-23T02:10:59;10.43;;;7.07;;
485;SDS011;229;48.734;9.340;2022-09-23T02:13:28;8.35;;;7.40;;
485;SDS011;229;48.734;9.340;2022-09-23T02:15:57;13.15;;;5.95;;
485;SDS011;229;48.734;9.340;2022-09-23T02:18:27;6.68;;;6.25;;
485;SDS011;229;48.734;9.340;2022-09-23T02:20:57;8.00;;;6.75;;
485;SDS011;229;48.734;9.340;2022-09-23T02:23:26;8.05;;;7.10;;
485;SDS011;229;48.734;9.340;2022-09-23T02:25:57;6.35;;;5.95;;
485;SDS011;229;48.734;9.340;2022-09-23T02:28:30;10.30;;;6.90;;
485;SDS011;229;48.734;9.340;2022-09-23T02:31:00;10.95;;;7.05;;
485;SDS011;229;48.734;9.340;2022-09-23T02:33:33;11.65;;;6.70;;
485;SDS011;229;48.734;9.340;2022-09-23T02:36:04;9.07;;;7.63;;
485;SDS011;229;48.734;9.340;2022-09-23T02:38:33;7.28;;;6.60;;
485;SDS011;229;48.734;9.340;2022-09-23T02:41:03;7.93;;;6.85;;
485;SDS011;229;48.734;9.340;2022-09-23T02:43:32;7.35;;;6.47;;
485;SDS011;229;48.734;9.340;2022-09-23T02:46:00;8.55;;;7.03;;
485;SDS011;229;48.734;9.340;2022-09-23T02:48:28;8.85;;;6.82;;
485;SDS011;229;48.734;9.340;2022-09-23T02:50:56;9.45;;;6.35;;
485;SDS011;229;48.734;9.340;2022-09-23T02:53:27;7.15;;;6.53;;
485;SDS011;229;48.734;9.340;2022-09-23T02:55:56;10.15;;;7.30;;
485;SDS011;229;48.734;9.340;2022-09-23T02:58:23;10.48;;;7.88;;
485;SDS011;229;48.734;9.340;2022-09-23T03:00:53;8.50;;;7.95;;
485;SDS011;229;48.734;9.340;2022-09-23T03:03:29;8.35;;;7.43;;
485;SDS011;229;48.734;9.340;2022-09-23T03:05:59;9.02;;;7.45;;
485;SDS011;229;48.734;9.340;2022-09-23T03:08:35;8.93;;;7.30;;
485;SDS011;229;48.734;9.340;2022-09-23T03:11:04;8.32;;;7.15;;
485;SDS011;229;48.734;9.340;2022-09-23T03:13:34;7.97;;;7.00;;
485;SDS011;229;48.734;9.340;2022-09-23T03:16:07;7.40;;;7.05;;
485;SDS011;229;48.734;9.340;2022-09-23T03:18:38;9.13;;;7.72;;
485;SDS011;229;48.734;9.340;2022-09-23T03:21:06;8.52;;;7.15;;
485;SDS011;229;48.734;9.340;2022-09-23T03:23:36;10.35;;;8.10;;
485;SDS011;229;48.734;9.340;2022-09-23T03:26:07;8.43;;;7.75;;
485;SDS011;229;48.734;9.340;2022-09-23T03:28:35;9.75;;;7.53;;
485;SDS011;229;48.734;9.340;2022-09-23T03:31:04;9.30;;;7.68;;
485;SDS011;229;48.734;9.340;2022-09-23T03:33:32;9.45;;;8.30;;
485;SDS011;229;48.734;9.340;2022-09-23T03:36:01;12.70;;;7.82;;
485;SDS011;229;48.734;9.340;2022-09-23T03:38:49;8.23;;;7.25;;
485;SDS011;229;48.734;9.340;2022-09-23T03:41:20;10.35;;;8.07;;
485;SDS011;229;48.734;9.340;2022-09-23T03:43:48;10.38;;;7.72;;
485;SDS011;229;48.734;9.340;2022-09-23T03:46:17;10.02;;;7.90;;
485;SDS011;229;48.734;9.340;2022-09-23T03:48:44;12.27;;;9.10;;
485;SDS011;229;48.734;9.340;2022-09-23T03:51:18;12.00;;;7.78;;
485;SDS011;229;48.734;9.340;2022-09-23T03:53:46;12.13;;;8.30;;
485;SDS011;229;48.734;9.340;2022-09-23T03:56:14;8.60;;;7.22;;
485;SDS011;229;48.734;9.340;2022-09-23T03:58:41;9.43;;;7.95;;
485;SDS011;229;48.734;9.340;2022-09-23T04:01:10;12.52;;;8.65;;
485;SDS011;229;48.734;9.340;2022-09-23T04:03:38;12.43;;;8.90;;
485;SDS011;229;48.734;9.340;2022-09-23T04:06:06;10.32;;;8.68;;
485;SDS011;229;48.734;9.340;2022-09-23T04:08:34;10.73;;;7.65;;
485;SDS011;229;48.734;9.340;2022-09-23T04:11:01;11.30;;;7.60;;
485;SDS011;229;48.734;9.340;2022-09-23T04:13:30;10.25;;;8.13;;
485;SDS011;229;48.734;9.340;2022-09-23T04:15:57;11.43;;;8.77;;
485;SDS011;229;48.734;9.340;2022-09-23T04:18:24;9.60;;;7.60;;
485;SDS011;229;48.734;9.340;2022-09-23T04:20:55;14.77;;;8.95;;
485;SDS011;229;48.734;9.340;2022-09-23T04:23:23;10.70;;;8.45;;
485;SDS011;229;48.734;9.340;2022-09-23T04:25:50;15.32;;;9.50;;
485;SDS011;229;48.734;9.340;2022-09-23T04:28:17;9.70;;;8.07;;
485;SDS011;229;48.734;9.340;2022-09-23T04:30:45;14.85;;;9.00;;
485;SDS011;229;48.734;9.340;2022-09-23T04:33:13;11.15;;;8.52;;
485;SDS011;229;48.734;9.340;2022-09-23T04:35:40;9.80;;;8.10;;
485;SDS011;229;48.734;9.340;2022-09-23T04:38:08;11.10;;;8.43;;
485;SDS011;229;48.734;9.340;2022-09-23T04:40:36;14.00;;;9.35;;
485;SDS011;229;48.734;9.340;2022-09-23T04:43:03;10.90;;;8.88;;
485;SDS011;229;48.734;9.340;2022-09-23T04:45:30;8.77;;;8.27;;
485;SDS011;229;48.734;9.340;2022-09-23T04:47:58;12.10;;;8.68;;
485;SDS011;229;48.734;9.340;2022-09-23T04:50:26;11.30;;;9.30;;
485;SDS011;229;48.734;9.340;2022-09-23T04:52:53;14.98;;;9.32;;
485;SDS011;229;48.734;9.340;2022-09-23T04:55:20;11.93;;;10.27;;
485;SDS011;229;48.734;9.340;2022-09-23T04:57:48;10.07;;;8.63;;
485;SDS011;229;48.734;9.340;2022-09-23T05:00:15;13.55;;;9.40;;
485;SDS011;229;48.734;9.340;2022-09-23T05:02:42;12.30;;;9.18;;
485;SDS011;229;48.734;9.340;2022-09-23T05:05:11;12.35;;;10.00;;
485;SDS011;229;48.734;9.340;2022-09-23T05:07:39;12.10;;;9.35;;
485;SDS011;229;48.734;9.340;2022-09-23T05:10:08;14.13;;;9.00;;
485;SDS011;229;48.734;9.340;2022-09-23T05:12:35;12.65;;;10.45;;
485;SDS011;229;48.734;9.340;2022-09-23T05:15:03;12.60;;;9.75;;
485;SDS011;229;48.734;9.340;2022-09-23T05:17:30;11.35;;;9.10;;
485;SDS011;229;48.734;9.340;2022-09-23T05:19:57;11.35;;;9.20;;
485;SDS011;229;48.734;9.340;2022-09-23T05:22:27;12.23;;;8.48;;
485;SDS011;229;48.734;9.340;2022-09-23T05:24:55;13.10;;;9.30;;
485;SDS011;229;48.734;9.340;2022-09-23T05:27:23;12.73;;;8.85;;
485;SDS011;229;48.734;9.340;2022-09-23T05:29:51;12.60;;;10.15;;
485;SDS011;229;48.734;9.340;2022-09-23T05:32:18;15.32;;;9.68;;
485;SDS011;229;48.734;9.340;2022-09-23T05:34:45;13.35;;;10.05;;
485;SDS011;229;48.734;9.340;2022-09-23T05:37:12;11.35;;;9.25;;
485;SDS011;229;48.734;9.340;2022-09-23T05:39:41;10.77;;;10.07;;
485;SDS011;229;48.734;9.340;2022-09-23T05:42:08;10.63;;;9.27;;
485;SDS011;229;48.734;9.340;2022-09-23T05:44:36;10.35;;;8.43;;
485;SDS011;229;48.734;9.340;2022-09-23T05:47:04;9.43;;;8.45;;
485;SDS011;229;48.734;9.340;2022-09-23T05:49:32;10.00;;;8.55;;
485;SDS011;229;48.734;9.340;2022-09-23T05:52:00;11.25;;;9.45;;
485;SDS011;229;48.734;9.340;2022-09-23T05:54:28;12.02;;;9.00;;
485;SDS011;229;48.734;9.340;2022-09-23T05:56:56;11.52;;;10.15;;
485;SDS011;229;48.734;9.340;2022-09-23T05:59:23;15.05;;;9.85;;
485;SDS011;229;48.734;9.340;2022-09-23T06:01:50;12.95;;;10.40;;
485;SDS011;229;48.734;9.340;2022-09-23T06:04:18;10.55;;;8.93;;
485;SDS011;229;48.734;9.340;2022-09-23T06:06:45;11.52;;;9.20;;
485;SDS011;229;48.734;9.340;2022-09-23T06:09:13;11.57;;;8.65;;
485;SDS011;229;48.734;9.340;2022-09-23T06:11:40;16.02;;;10.30;;
485;SDS011;229;48.734;9.340;2022-09-23T06:14:10;14.88;;;10.90;;
485;SDS011;229;48.734;9.340;2022-09-23T06:16:38;16.55;;;12.07;;
485;SDS011;229;48.734;9.340;2022-09-23T06:19:06;15.40;;;10.93;;
485;SDS011;229;48.734;9.340;2022-09-23T06:21:35;13.82;;;10.95;;
485;SDS011;229;48.734;9.340;2022-09-23T06:24:02;16.25;;;11.05;;
485;SDS011;229;48.734;9.340;2022-09-23T06:26:30;14.50;;;10.98;;
485;SDS011;229;48.734;9.340;2022-09-23T06:28:59;14.10;;;11.20;;
485;SDS011;229;48.734;9.340;2022-09-23T06:31:28;17.35;;;11.73;;
485;SDS011;229;48.734;9.340;2022-09-23T06:33:55;16.10;;;11.85;;
485;SDS011;229;48.734;9.340;2022-09-23T06:36:22;24.80;;;14.38;;
485;SDS011;229;48.734;9.340;2022-09-23T06:38:49;20.42;;;13.18;;
485;SDS011;229;48.734;9.340;2022-09-23T06:41:16;19.27;;;13.75;;
485;SDS011;229;48.734;9.340;2022-09-23T06:43:45;23.38;;;13.73;;
485;SDS011;229;48.734;9.340;2022-09-23T06:46:14;18.52;;;12.80;;
485;SDS011;229;48.734;9.340;2022-09-23T06:48:43;17.98;;;13.32;;
485;SDS011;229;48.734;9.340;2022-09-23T06:51:11;18.08;;;13.45;;
485;SDS011;229;48.734;9.340;2022-09-23T06:53:43;19.08;;;13.10;;
485;SDS011;229;48.734;9.340;2022-09-23T06:56:11;21.05;;;13.73;;
485;SDS011;229;48.734;9.340;2022-09-23T06:58:38;17.38;;;12.13;;
485;SDS011;229;48.734;9.340;2022-09-23T07:01:06;15.27;;;12.68;;
485;SDS011;229;48.734;9.340;2022-09-23T07:03:34;15.20;;;12.20;;
485;SDS011;229;48.734;9.340;2022-09-23T07:06:02;17.95;;;11.40;;
485;SDS011;229;48.734;9.340;2022-09-23T07:08:30;14.80;;;11.68;;
485;SDS011;229;48.734;9.340;2022-09-23T07:10:58;14.77;;;12.52;;
485;SDS011;229;48.734;9.340;2022-09-23T07:13:26;13.88;;;11.90;;
485;SDS011;229;48.734;9.340;2022-09-23T07:15:54;19.35;;;14.15;;
485;SDS011;229;48.734;9.340;2022-09-23T07:18:22;12.73;;;11.18;;
485;SDS011;229;48.734;9.340;2022-09-23T07:20:49;20.42;;;13.05;;
485;SDS011;229;48.734;9.340;2022-09-23T07:23:18;13.65;;;10.80;;
485;SDS011;229;48.734;9.340;2022-09-23T07:25:46;14.15;;;10.80;;
485;SDS011;229;48.734;9.340;2022-09-23T07:28:15;14.00;;;10.75;;
485;SDS011;229;48.734;9.340;2022-09-23T07:30:43;13.55;;;10.20;;
485;SDS011;229;48.734;9.340;2022-09-23T07:33:10;10.70;;;9.63;;
485;SDS011;229;48.734;9.340;2022-09-23T07:35:38;12.48;;;10.70;;
485;SDS011;229;48.734;9.340;2022-09-23T07:38:05;13.82;;;10.25;;
485;SDS011;229;48.734;9.340;2022-09-23T07:40:34;11.32;;;10.30;;
485;SDS011;229;48.734;9.340;2022-09-23T07:43:02;10.98;;;8.95;;
485;SDS011;229;48.734;9.340;2022-09-23T07:45:30;12.98;;;10.40;;
485;SDS011;229;48.734;9.340;2022-09-23T07:47:58;10.52;;;8.75;;
485;SDS011;229;48.734;9.340;2022-09-23T07:50:25;10.93;;;9.68;;
485;SDS011;229;48.734;9.340;2022-09-23T07:52:53;8.98;;;8.48;;
485;SDS011;229;48.734;9.340;2022-09-23T07:55:20;8.90;;;8.23;;
485;SDS011;229;48.734;9.340;2022-09-23T07:57:49;11.05;;;8.73;;
485;SDS011;229;48.734;9.340;2022-09-23T08:00:16;8.68;;;8.15;;
485;SDS011;229;48.734;9.340;2022-09-23T08:02:43;10.48;;;8.45;;
485;SDS011;229;48.734;9.340;2022-09-23T08:05:10;9.32;;;8.18;;
485;SDS011;229;48.734;9.340;2022-09-23T08:07:37;10.38;;;7.30;;
485;SDS011;229;48.734;9.340;2022-09-23T08:10:05;16.00;;;7.93;;
485;SDS011;229;48.734;9.340;2022-09-23T08:12:32;10.82;;;8.80;;
485;SDS011;229;48.734;9.340;2022-09-23T08:15:01;9.13;;;8.07;;
485;SDS011;229;48.734;9.340;2022-09-23T08:17:28;9.60;;;8.18;;
485;SDS011;229;48.734;9.340;2022-09-23T08:19:55;9.82;;;8.57;;
485;SDS011;229;48.734;9.340;2022-09-23T08:22:22;8.35;;;7.40;;
485;SDS011;229;48.734;9.340;2022-09-23T08:24:50;9.38;;;7.57;;
485;SDS011;229;48.734;9.340;2022-09-23T08:27:17;8.93;;;7.45;;
485;SDS011;229;48.734;9.340;2022-09-23T08:29:44;9.25;;;7.75;;
485;SDS011;229;48.734;9.340;2022-09-23T08:32:13;11.10;;;8.30;;
485;SDS011;229;48.734;9.340;2022-09-23T08:34:40;8.75;;;8.25;;
485;SDS011;229;48.734;9.340;2022-09-23T08:37:08;9.55;;;8.15;;
485;SDS011;229;48.734;9.340;2022-09-23T08:39:36;9.27;;;7.32;;
485;SDS011;229;48.734;9.340;2022-09-23T08:42:06;16.77;;;8.70;;
485;SDS011;229;48.734;9.340;2022-09-23T08:44:42;10.48;;;7.13;;
485;SDS011;229;48.734;9.340;2022-09-23T08:47:14;8.38;;;7.65;;
485;SDS011;229;48.734;9.340;2022-09-23T08:49:44;15.50;;;7.43;;
485;SDS011;229;48.734;9.340;2022-09-23T08:52:15;10.40;;;8.05;;
485;SDS011;229;48.734;9.340;2022-09-23T08:54:43;8.27;;;7.40;;
485;SDS011;229;48.734;9.340;2022-09-23T08:57:12;8.70;;;7.53;;
485;SDS011;229;48.734;9.340;2022-09-23T08:59:45;16.40;;;8.18;;
485;SDS011;229;48.734;9.340;2022-09-23T09:02:17;13.30;;;7.57;;
485;SDS011;229;48.734;9.340;2022-09-23T09:04:44;7.30;;;6.90;;
485;SDS011;229;48.734;9.340;2022-09-23T09:07:14;12.40;;;7.72;;
485;SDS011;229;48.734;9.340;2022-09-23T09:09:44;8.10;;;7.18;;
485;SDS011;229;48.734;9.340;2022-09-23T09:12:14;7.53;;;6.68;;
485;SDS011;229;48.734;9.340;2022-09-23T09:14:56;10.40;;;6.80;;
485;SDS011;229;48.734;9.340;2022-09-23T09:17:27;10.10;;;8.77;;
485;SDS011;229;48.734;9.340;2022-09-23T09:19:56;11.82;;;8.15;;
485;SDS011;229;48.734;9.340;2022-09-23T09:22:36;10.25;;;7.63;;
485;SDS011;229;48.734;9.340;2022-09-23T09:25:10;9.65;;;7.32;;
485;SDS011;229;48.734;9.340;2022-09-23T09:27:41;9.40;;;8.73;;
485;SDS011;229;48.734;9.340;2022-09-23T09:30:10;8.75;;;8.02;;
485;SDS011;229;48.734;9.340;2022-09-23T09:32:41;17.52;;;7.70;;
485;SDS011;229;48.734;9.340;2022-09-23T09:35:15;7.28;;;6.88;;
485;SDS011;229;48.734;9.340;2022-09-23T09:37:45;10.13;;;7.32;;
485;SDS011;229;48.734;9.340;2022-09-23T09:40:13;8.52;;;7.85;;
485;SDS011;229;48.734;9.340;2022-09-23T09:42:43;8.32;;;7.05;;
485;SDS011;229;48.734;9.340;2022-09-23T09:45:14;7.50;;;6.70;;
485;SDS011;229;48.734;9.340;2022-09-23T09:47:45;8.90;;;6.10;;
485;SDS011;229;48.734;9.340;2022-09-23T09:50:16;7.57;;;7.20;;
485;SDS011;229;48.734;9.340;2022-09-23T09:52:45;7.03;;;6.63;;
485;SDS011;229;48.734;9.340;2022-09-23T09:57:59;6.75;;;6.35;;
485;SDS011;229;48.734;9.340;2022-09-23T10:00:33;7.45;;;6.78;;
485;SDS011;229;48.734;9.340;2022-09-23T10:03:04;10.00;;;7.55;;
485;SDS011;229;48.734;9.340;2022-09-23T10:05:45;9.63;;;7.70;;
485;SDS011;229;48.734;9.340;2022-09-23T10:08:20;7.30;;;6.90;;
485;SDS011;229;48.734;9.340;2022-09-23T10:10:49;10.95;;;7.30;;
485;SDS011;229;48.734;9.340;2022-09-23T10:13:19;11.18;;;6.25;;
485;SDS011;229;48.734;9.340;2022-09-23T10:15:48;8.15;;;6.28;;
485;SDS011;229;48.734;9.340;2022-09-23T10:18:22;7.13;;;6.72;;
485;SDS011;229;48.734;9.340;2022-09-23T10:20:53;7.20;;;6.80;;
485;SDS011;229;48.734;9.340;2022-09-23T10:23:26;11.40;;;6.57;;
485;SDS011;229;48.734;9.340;2022-09-23T10:25:57;8.20;;;6.35;;
485;SDS011;229;48.734;9.340;2022-09-23T10:28:29;7.65;;;6.28;;
485;SDS011;229;48.734;9.340;2022-09-23T10:31:02;6.57;;;6.20;;
485;SDS011;229;48.734;9.340;2022-09-23T10:33:31;6.45;;;5.90;;
485;SDS011;229;48.734;9.340;2022-09-23T10:36:00;6.25;;;5.82;;
485;SDS011;229;48.734;9.340;2022-09-23T10:38:27;6.20;;;5.13;;
485;SDS011;229;48.734;9.340;2022-09-23T10:40:54;6.43;;;6.00;;
485;SDS011;229;48.734;9.340;2022-09-23T10:43:41;7.60;;;7.15;;
485;SDS011;229;48.734;9.340;2022-09-23T10:46:36;13.80;;;6.70;;
485;SDS011;229;48.734;9.340;2022-09-23T10:49:09;6.75;;;5.88;;
485;SDS011;229;48.734;9.340;2022-09-23T10:51:43;10.18;;;6.60;;
485;SDS011;229;48.734;9.340;2022-09-23T10:54:14;10.50;;;6.57;;
485;SDS011;229;48.734;9.340;2022-09-23T10:56:45;6.07;;;5.78;;
485;SDS011;229;48.734;9.340;2022-09-23T11:02:16;9.93;;;6.65;;
485;SDS011;229;48.734;9.340;2022-09-23T11:04:56;8.38;;;6.22;;
485;SDS011;229;48.734;9.340;2022-09-23T11:07:28;5.97;;;5.70;;
485;SDS011;229;48.734;9.340;2022-09-23T11:10:18;8.13;;;5.75;;
485;SDS011;229;48.734;9.340;2022-09-23T11:12:50;6.70;;;6.30;;
485;SDS011;229;48.734;9.340;2022-09-23T11:15:27;7.22;;;6.25;;
485;SDS011;229;48.734;9.340;2022-09-23T11:18:04;5.93;;;5.50;;
485;SDS011;229;48.734;9.340;2022-09-23T11:20:39;7.78;;;4.90;;
485;SDS011;229;48.734;9.340;2022-09-23T11:23:23;9.63;;;6.13;;
485;SDS011;229;48.734;9.340;2022-09-23T11:25:54;6.53;;;6.10;;
485;SDS011;229;48.734;9.340;2022-09-23T11:28:31;6.20;;;5.30;;
485;SDS011;229;48.734;9.340;2022-09-23T11:31:04;7.03;;;5.10;;
485;SDS011;229;48.734;9.340;2022-09-23T11:33:40;16.13;;;5.70;;
485;SDS011;229;48.734;9.340;2022-09-23T11:36:14;5.40;;;5.10;;
485;SDS011;229;48.734;9.340;2022-09-23T11:38:45;6.93;;;6.20;;
485;SDS011;229;48.734;9.340;2022-09-23T11:41:14;8.60;;;5.38;;
485;SDS011;229;48.734;9.340;2022-09-23T11:43:45;6.07;;;5.20;;
485;SDS011;229;48.734;9.340;2022-09-23T11:46:17;5.63;;;5.32;;
485;SDS011;229;48.734;9.340;2022-09-23T11:48:48;6.80;;;5.43;;
485;SDS011;229;48.734;9.340;2022-09-23T11:51:18;5.45;;;5.10;;
485;SDS011;229;48.734;9.340;2022-09-23T11:53:49;9.48;;;5.55;;
485;SDS011;229;48.734;9.340;2022-09-23T11:56:19;4.40;;;4.18;;
485;SDS011;229;48.734;9.340;2022-09-23T11:58:49;6.25;;;4.70;;
485;SDS011;229;48.734;9.340;2022-09-23T12:01:20;4.93;;;4.38;;
485;SDS011;229;48.734;9.340;2022-09-23T12:03:52;5.43;;;4.88;;
485;SDS011;229;48.734;9.340;2022-09-23T12:06:23;5.35;;;4.95;;
485;SDS011;229;48.734;9.340;2022-09-23T12:08:52;5.55;;;5.00;;
485;SDS011;229;48.734;9.340;2022-09-23T12:11:23;5.97;;;5.70;;
485;SDS011;229;48.734;9.340;2022-09-23T12:13:53;7.38;;;5.13;;
485;SDS011;229;48.734;9.340;2022-09-23T12:16:27;5.50;;;5.20;;
485;SDS011;229;48.734;9.340;2022-09-23T12:19:00;5.95;;;5.25;;
485;SDS011;229;48.734;9.340;2022-09-23T12:21:47;4.95;;;4.65;;
485;SDS011;229;48.734;9.340;2022-09-23T12:24:25;5.63;;;4.68;;
485;SDS011;229;48.734;9.340;2022-09-23T12:26:54;5.63;;;5.30;;
485;SDS011;229;48.734;9.340;2022-09-23T12:29:23;6.30;;;5.40;;
485;SDS011;229;48.734;9.340;2022-09-23T12:31:52;7.28;;;5.57;;
485;SDS011;229;48.734;9.340;2022-09-23T12:34:20;6.13;;;5.90;;
485;SDS011;229;48.734;9.340;2022-09-23T12:36:50;7.97;;;6.28;;
485;SDS011;229;48.734;9.340;2022-09-23T12:39:20;7.03;;;6.40;;
485;SDS011;229;48.734;9.340;2022-09-23T12:41:52;8.47;;;5.70;;
485;SDS011;229;48.734;9.340;2022-09-23T12:44:28;6.50;;;6.10;;
485;SDS011;229;48.734;9.340;2022-09-23T12:49:53;7.33;;;6.20;;
485;SDS011;229;48.734;9.340;2022-09-23T12:52:24;8.52;;;6.07;;
485;SDS011;229;48.734;9.340;2022-09-23T12:54:54;6.07;;;5.78;;
485;SDS011;229;48.734;9.340;2022-09-23T13:00:13;5.93;;;5.47;;
485;SDS011;229;48.734;9.340;2022-09-23T13:02:41;5.77;;;5.50;;
485;SDS011;229;48.734;9.340;2022-09-23T13:05:15;6.27;;;5.87;;
485;SDS011;229;48.734;9.340;2022-09-23T13:08:04;6.87;;;5.90;;
485;SDS011;229;48.734;9.340;2022-09-23T13:10:32;7.37;;;6.40;;
485;SDS011;229;48.734;9.340;2022-09-23T13:13:00;6.80;;;6.40;;
485;SDS011;229;48.734;9.340;2022-09-23T13:15:29;7.10;;;5.73;;
485;SDS011;229;48.734;9.340;2022-09-23T13:20:39;6.40;;;6.00;;
485;SDS011;229;48.734;9.340;2022-09-23T13:23:17;9.65;;;6.75;;
485;SDS011;229;48.734;9.340;2022-09-23T13:25:46;6.93;;;5.90;;
485;SDS011;229;48.734;9.340;2022-09-23T13:28:20;7.27;;;6.87;;
485;SDS011;229;48.734;9.340;2022-09-23T13:30:49;7.33;;;6.60;;
485;SDS011;229;48.734;9.340;2022-09-23T13:33:19;8.60;;;6.63;;
485;SDS011;229;48.734;9.340;2022-09-23T13:35:48;9.37;;;6.67;;
485;SDS011;229;48.734;9.340;2022-09-23T13:38:19;9.70;;;6.97;;
485;SDS011;229;48.734;9.340;2022-09-23T13:40:47;7.37;;;7.00;;
485;SDS011;229;48.734;9.340;2022-09-23T13:43:16;6.53;;;6.13;;
485;SDS011;229;48.734;9.340;2022-09-23T13:45:45;9.90;;;6.60;;
485;SDS011;229;48.734;9.340;2022-09-23T13:48:13;7.25;;;5.90;;
485;SDS011;229;48.734;9.340;2022-09-23T13:50:42;7.60;;;6.73;;
485;SDS011;229;48.734;9.340;2022-09-23T13:53:10;10.13;;;6.70;;
485;SDS011;229;48.734;9.340;2022-09-23T13:55:40;6.80;;;6.30;;
485;SDS011;229;48.734;9.340;2022-09-23T13:58:12;6.83;;;5.80;;
485;SDS011;229;48.734;9.340;2022-09-23T14:00:41;6.77;;;5.90;;
485;SDS011;229;48.734;9.340;2022-09-23T14:03:15;6.63;;;5.90;;
485;SDS011;229;48.734;9.340;2022-09-23T14:05:43;6.40;;;6.00;;
485;SDS011;229;48.734;9.340;2022-09-23T14:08:11;6.17;;;5.87;;
485;SDS011;229;48.734;9.340;2022-09-23T14:10:38;14.60;;;5.90;;
485;SDS011;229;48.734;9.340;2022-09-23T14:13:13;9.83;;;6.80;;
485;SDS011;229;48.734;9.340;2022-09-23T14:15:41;6.93;;;6.53;;
485;SDS011;229;48.734;9.340;2022-09-23T14:18:10;11.60;;;7.60;;
485;SDS011;229;48.734;9.340;2022-09-23T14:20:43;6.93;;;6.07;;
485;SDS011;229;48.734;9.340;2022-09-23T14:23:11;8.87;;;7.30;;
485;SDS011;229;48.734;9.340;2022-09-23T14:25:39;9.50;;;7.17;;
485;SDS011;229;48.734;9.340;2022-09-23T14:28:07;7.57;;;6.47;;
485;SDS011;229;48.734;9.340;2022-09-23T14:30:37;7.00;;;6.20;;
485;SDS011;229;48.734;9.340;2022-09-23T14:33:07;6.40;;;6.03;;
485;SDS011;229;48.734;9.340;2022-09-23T14:35:37;5.73;;;5.43;;
485;SDS011;229;48.734;9.340;2022-09-23T14:38:06;6.70;;;5.20;;
485;SDS011;229;48.734;9.340;2022-09-23T14:40:51;6.87;;;5.50;;
485;SDS011;229;48.734;9.340;2022-09-23T14:43:39;10.03;;;7.73;;
485;SDS011;229;48.734;9.340;2022-09-23T14:46:12;11.97;;;8.63;;
485;SDS011;229;48.734;9.340;2022-09-23T14:48:42;11.33;;;7.00;;
485;SDS011;229;48.734;9.340;2022-09-23T14:51:09;15.17;;;9.47;;
485;SDS011;229;48.734;9.340;2022-09-23T14:53:37;18.90;;;9.93;;
485;SDS011;229;48.734;9.340;2022-09-23T14:56:12;14.03;;;8.63;;
485;SDS011;229;48.734;9.340;2022-09-23T14:58:40;7.87;;;7.00;;
485;SDS011;229;48.734;9.340;2022-09-23T15:01:23;13.20;;;7.10;;
485;SDS011;229;48.734;9.340;2022-09-23T15:03:51;5.57;;;5.30;;
485;SDS011;229;48.734;9.340;2022-09-23T15:06:19;8.40;;;6.23;;
485;SDS011;229;48.734;9.340;2022-09-23T15:08:48;7.70;;;6.10;;
485;SDS011;229;48.734;9.340;2022-09-23T15:11:15;7.67;;;6.20;;
485;SDS011;229;48.734;9.340;2022-09-23T15:13:44;6.50;;;5.87;;
485;SDS011;229;48.734;9.340;2022-09-23T15:16:12;6.90;;;5.97;;
485;SDS011;229;48.734;9.340;2022-09-23T15:18:42;9.10;;;6.70;;
485;SDS011;229;48.734;9.340;2022-09-23T15:21:11;7.93;;;6.28;;
485;SDS011;229;48.734;9.340;2022-09-23T15:23:42;6.60;;;6.23;;
485;SDS011;229;48.734;9.340;2022-09-23T15:26:10;7.90;;;6.07;;
485;SDS011;229;48.734;9.340;2022-09-23T15:28:37;5.70;;;5.40;;
485;SDS011;229;48.734;9.340;2022-09-23T15:31:05;9.30;;;7.07;;
485;SDS011;229;48.734;9.340;2022-09-23T15:33:33;9.17;;;6.90;;
485;SDS011;229;48.734;9.340;2022-09-23T15:36:01;9.90;;;7.50;;
485;SDS011;229;48.734;9.340;2022-09-23T15:38:29;8.13;;;5.97;;
485;SDS011;229;48.734;9.340;2022-09-23T15:40:56;6.23;;;5.80;;
485;SDS011;229;48.734;9.340;2022-09-23T15:43:24;9.53;;;6.33;;
485;SDS011;229;48.734;9.340;2022-09-23T15:45:52;8.17;;;6.77;;
485;SDS011;229;48.734;9.340;2022-09-23T15:48:21;8.83;;;7.40;;
485;SDS011;229;48.734;9.340;2022-09-23T15:50:49;8.23;;;6.53;;
485;SDS011;229;48.734;9.340;2022-09-23T15:53:18;9.97;;;7.03;;
485;SDS011;229;48.734;9.340;2022-09-23T15:55:46;11.25;;;5.75;;
485;SDS011;229;48.734;9.340;2022-09-23T15:58:14;8.33;;;6.70;;
485;SDS011;229;48.734;9.340;2022-09-23T16:00:41;7.60;;;7.20;;
485;SDS011;229;48.734;9.340;2022-09-23T16:03:09;8.80;;;6.37;;
485;SDS011;229;48.734;9.340;2022-09-23T16:05:37;9.40;;;6.03;;
485;SDS011;229;48.734;9.340;2022-09-23T16:08:05;7.80;;;6.07;;
485;SDS011;229;48.734;9.340;2022-09-23T16:10:34;6.80;;;6.40;;